Time;durP1;ratioP1;P1;durP2;ratioP2;P2;SDS_P1;SDS_P2;PMS_P1;PMS_P2;Temp;Humidity;BMP_temperature;BMP_pressure;BME280_temperature;BME280_humidity;BME280_pressure;Samples;Min_cycle;Max_cycle;Signal;HPM_P1;HPM_P2
2023/03/04 00:00:12;;;;;;;19.45;4.95;;;6.10;99.90;;;;;;7375253;19;20022;-71
2023/03/04 00:02:38;;;;;;;15.18;2.80;;;6.00;99.90;;;;;;7369987;19;20022;-71
2023/03/04 00:05:06;;;;;;;16.95;2.67;;;6.00;99.90;;;;;;7373921;19;20019;-72
2023/03/04 00:07:32;;;;;;;13.93;3.03;;;6.00;99.90;;;;;;7373333;19;20018;-72
2023/03/04 00:10:01;;;;;;;18.85;3.53;;;6.00;99.90;;;;;;7374863;19;20346;-72
2023/03/04 00:12:28;;;;;;;18.27;3.13;;;6.00;99.90;;;;;;7372218;19;20367;-71
2023/03/04 00:14:54;;;;;;;16.45;2.85;;;6.00;99.90;;;;;;7374487;19;20014;-72
2023/03/04 00:17:20;;;;;;;15.23;3.08;;;6.00;99.90;;;;;;7370693;19;20022;-72
2023/03/04 00:19:47;;;;;;;19.30;2.95;;;6.00;99.90;;;;;;7370573;19;20059;-72
2023/03/04 00:22:16;;;;;;;16.58;3.10;;;6.00;99.90;;;;;;7371319;19;20596;-72
2023/03/04 00:24:42;;;;;;;18.52;3.15;;;6.00;99.90;;;;;;7369882;19;20022;-72
2023/03/04 00:27:10;;;;;;;15.20;3.20;;;6.00;99.90;;;;;;7371934;19;20015;-72
2023/03/04 00:29:37;;;;;;;18.70;2.95;;;6.00;99.90;;;;;;7374217;19;20049;-71
2023/03/04 00:32:04;;;;;;;16.25;3.60;;;6.00;99.90;;;;;;7370888;19;20890;-73
2023/03/04 00:34:30;;;;;;;17.17;3.00;;;6.00;99.90;;;;;;7371084;19;20036;-72
2023/03/04 00:37:00;;;;;;;20.23;2.90;;;6.00;99.90;;;;;;7375747;19;20473;-72
2023/03/04 00:39:27;;;;;;;12.43;2.40;;;6.00;99.90;;;;;;7372949;19;20098;-72
2023/03/04 00:41:53;;;;;;;15.95;2.88;;;6.00;99.90;;;;;;7379552;19;20015;-72
2023/03/04 00:44:20;;;;;;;12.85;2.42;;;6.00;99.90;;;;;;7376336;19;20022;-72
2023/03/04 00:46:46;;;;;;;13.88;2.70;;;6.00;99.90;;;;;;7381280;19;20018;-72
2023/03/04 00:49:13;;;;;;;17.02;3.50;;;6.00;99.90;;;;;;7377722;19;20466;-72
2023/03/04 00:51:39;;;;;;;12.05;2.72;;;6.00;99.90;;;;;;7379874;19;20019;-69
2023/03/04 00:54:08;;;;;;;12.57;2.53;;;6.00;99.90;;;;;;7377461;19;20022;-72
2023/03/04 00:56:35;;;;;;;13.27;3.08;;;6.00;99.90;;;;;;7376431;19;20019;-69
2023/03/04 00:59:01;;;;;;;18.58;3.42;;;6.00;99.90;;;;;;7381881;19;20022;-69
2023/03/04 01:01:27;;;;;;;13.38;2.22;;;6.00;99.90;;;;;;7380302;19;20645;-69
2023/03/04 01:03:56;;;;;;;13.32;2.75;;;5.90;99.90;;;;;;7377618;19;20029;-69
2023/03/04 01:06:23;;;;;;;16.15;3.40;;;5.90;99.90;;;;;;7378330;19;20019;-69
2023/03/04 01:08:49;;;;;;;14.20;2.30;;;5.90;99.90;;;;;;7380686;19;20041;-69
2023/03/04 01:11:16;;;;;;;11.20;2.75;;;5.90;99.90;;;;;;7380648;19;20018;-71
2023/03/04 01:13:42;;;;;;;14.45;2.88;;;5.90;99.90;;;;;;7379573;19;20502;-71
2023/03/04 01:16:10;;;;;;;16.30;2.60;;;5.90;99.90;;;;;;7382085;19;20081;-69
2023/03/04 01:18:36;;;;;;;13.32;2.72;;;5.90;99.90;;;;;;7380094;19;20102;-69
2023/03/04 01:21:03;;;;;;;16.98;3.08;;;5.90;99.90;;;;;;7381057;19;20019;-69
2023/03/04 01:23:30;;;;;;;16.10;2.90;;;5.90;99.90;;;;;;7374200;19;20048;-70
2023/03/04 01:26:01;;;;;;;17.77;2.50;;;5.90;99.90;;;;;;7379647;19;20022;-69
2023/03/04 01:28:27;;;;;;;13.00;3.03;;;5.90;99.90;;;;;;7378967;19;20029;-70
2023/03/04 01:30:54;;;;;;;15.88;2.95;;;5.90;99.90;;;;;;7380052;19;20021;-70
2023/03/04 01:33:20;;;;;;;16.20;3.05;;;5.90;99.90;;;;;;7377256;19;20060;-70
2023/03/04 01:35:46;;;;;;;21.77;3.33;;;5.90;99.90;;;;;;7377013;19;20035;-71
2023/03/04 01:38:15;;;;;;;14.40;2.25;;;5.90;99.90;;;;;;7375803;19;20530;-72
2023/03/04 01:40:41;;;;;;;12.18;3.13;;;5.90;99.90;;;;;;7375679;19;20043;-72
2023/03/04 01:43:14;;;;;;;21.55;3.28;;;5.90;99.90;;;;;;7374821;19;20014;-72
2023/03/04 01:45:40;;;;;;;16.33;3.05;;;5.90;99.90;;;;;;7375316;19;20126;-72
2023/03/04 01:48:11;;;;;;;21.08;2.90;;;5.90;99.90;;;;;;7375873;19;20690;-72
2023/03/04 01:50:38;;;;;;;11.23;2.85;;;5.90;99.90;;;;;;7376585;19;20044;-72
2023/03/04 01:53:05;;;;;;;13.50;2.92;;;5.90;99.90;;;;;;7376026;19;20022;-72
2023/03/04 01:55:32;;;;;;;11.60;2.40;;;5.90;99.90;;;;;;7375082;19;20795;-72
2023/03/04 01:57:58;;;;;;;13.27;2.95;;;5.90;99.90;;;;;;7377737;19;20018;-69
2023/03/04 02:00:30;;;;;;;14.60;3.00;;;5.90;99.90;;;;;;7378986;19;20019;-72
2023/03/04 02:03:12;;;;;;;12.55;2.15;;;5.90;99.90;;;;;;7374688;19;20058;-72
2023/03/04 02:05:42;;;;;;;14.68;2.65;;;5.90;99.90;;;;;;7377105;19;20057;-72
2023/03/04 02:08:12;;;;;;;17.37;2.50;;;5.90;99.90;;;;;;7377736;19;20022;-69
2023/03/04 02:10:40;;;;;;;11.30;2.72;;;5.90;99.90;;;;;;7378273;19;20015;-70
2023/03/04 02:13:07;;;;;;;17.65;3.40;;;5.90;99.90;;;;;;7376212;19;20588;-69
2023/03/04 02:15:34;;;;;;;14.98;2.60;;;5.90;99.90;;;;;;7379001;19;20492;-69
2023/03/04 02:18:06;;;;;;;13.18;2.58;;;5.80;99.90;;;;;;7381317;19;20051;-69
2023/03/04 02:20:49;;;;;;;20.70;3.13;;;5.80;99.90;;;;;;7379970;19;20014;-69
2023/03/04 02:23:39;;;;;;;12.40;2.92;;;5.90;99.90;;;;;;7377785;19;20275;-69
2023/03/04 02:26:21;;;;;;;14.05;2.65;;;5.90;99.90;;;;;;7378625;19;20014;-69
2023/03/04 02:28:52;;;;;;;16.35;2.95;;;5.80;99.90;;;;;;7376658;19;20028;-69
2023/03/04 02:31:26;;;;;;;16.40;2.63;;;5.80;99.90;;;;;;7379226;19;20038;-70
2023/03/04 02:33:56;;;;;;;12.40;2.08;;;5.80;99.90;;;;;;7378478;19;20513;-69
2023/03/04 02:36:22;;;;;;;13.43;2.80;;;5.80;99.90;;;;;;7377719;19;20018;-69
2023/03/04 02:38:53;;;;;;;9.50;2.20;;;5.80;99.90;;;;;;7376563;19;20692;-70
2023/03/04 02:41:25;;;;;;;12.57;2.40;;;5.80;99.90;;;;;;7377031;19;20015;-69
2023/03/04 02:43:53;;;;;;;15.25;2.60;;;5.80;99.90;;;;;;7376301;19;20027;-70
2023/03/04 02:46:20;;;;;;;11.60;2.50;;;5.80;99.90;;;;;;7381388;19;20034;-69
2023/03/04 02:48:47;;;;;;;15.90;2.50;;;5.80;99.90;;;;;;7377730;19;20062;-70
2023/03/04 02:51:13;;;;;;;16.02;2.72;;;5.80;99.90;;;;;;7380748;19;20765;-69
2023/03/04 02:53:40;;;;;;;12.88;2.03;;;5.70;99.90;;;;;;7376860;19;20102;-69
2023/03/04 02:56:07;;;;;;;18.60;2.40;;;5.70;99.90;;;;;;7374384;19;20022;-69
2023/03/04 02:58:37;;;;;;;14.90;2.05;;;5.70;99.90;;;;;;7376222;19;20022;-69
2023/03/04 03:01:05;;;;;;;17.58;2.50;;;5.70;99.90;;;;;;7375674;19;20022;-70
2023/03/04 03:03:41;;;;;;;11.73;2.05;;;5.70;99.90;;;;;;7375814;19;20018;-70
2023/03/04 03:06:07;;;;;;;10.90;2.20;;;5.70;99.90;;;;;;7376676;19;20808;-69
2023/03/04 03:08:35;;;;;;;15.00;2.72;;;5.70;99.90;;;;;;7376141;19;20799;-69
2023/03/04 03:11:01;;;;;;;14.02;2.22;;;5.70;99.90;;;;;;7377325;19;20015;-69
2023/03/04 03:13:30;;;;;;;16.60;3.05;;;5.70;99.90;;;;;;7375548;19;20022;-69
2023/03/04 03:15:57;;;;;;;12.73;2.53;;;5.70;99.90;;;;;;7377211;19;20018;-69
2023/03/04 03:18:24;;;;;;;15.25;2.50;;;5.70;99.90;;;;;;7377174;19;20027;-69
2023/03/04 03:20:56;;;;;;;11.82;2.42;;;5.70;99.90;;;;;;7380377;19;20059;-69
2023/03/04 03:23:28;;;;;;;13.57;2.17;;;5.70;99.90;;;;;;7376856;19;20021;-72
2023/03/04 03:25:55;;;;;;;12.48;2.67;;;5.70;99.90;;;;;;7378381;19;20052;-69
2023/03/04 03:28:22;;;;;;;9.13;2.90;;;5.70;99.90;;;;;;7378567;19;20022;-69
2023/03/04 03:30:49;;;;;;;14.13;2.50;;;5.70;99.90;;;;;;7376456;19;20023;-69
2023/03/04 03:33:15;;;;;;;13.73;2.30;;;5.70;99.90;;;;;;7376976;19;20701;-69
2023/03/04 03:35:41;;;;;;;10.82;1.95;;;5.60;99.90;;;;;;7376332;19;20018;-69
2023/03/04 03:38:08;;;;;;;14.25;2.50;;;5.70;99.90;;;;;;7377246;19;20474;-72
2023/03/04 03:40:34;;;;;;;18.67;2.58;;;5.70;99.90;;;;;;7375511;19;20019;-72
2023/03/04 03:43:01;;;;;;;11.88;2.22;;;5.70;99.90;;;;;;7374425;19;20036;-72
2023/03/04 03:45:27;;;;;;;13.13;2.30;;;5.60;99.90;;;;;;7375546;19;20028;-69
2023/03/04 03:47:53;;;;;;;17.25;2.67;;;5.60;99.90;;;;;;7377419;19;20022;-69
2023/03/04 03:50:20;;;;;;;13.85;2.88;;;5.60;99.90;;;;;;7377506;19;20052;-69
2023/03/04 03:52:46;;;;;;;17.45;2.78;;;5.60;99.90;;;;;;7376278;19;20025;-69
2023/03/04 03:55:12;;;;;;;12.43;2.25;;;5.60;99.90;;;;;;7374600;19;20505;-72
2023/03/04 03:57:39;;;;;;;11.55;2.13;;;5.60;99.90;;;;;;7375508;19;20039;-72
2023/03/04 04:00:07;;;;;;;12.35;2.65;;;5.60;99.90;;;;;;7376774;19;20037;-72
2023/03/04 04:02:39;;;;;;;14.98;2.55;;;5.60;99.90;;;;;;7375392;19;20018;-72
2023/03/04 04:05:06;;;;;;;14.70;2.53;;;5.60;99.90;;;;;;7376973;19;20014;-71
2023/03/04 04:07:33;;;;;;;11.32;2.42;;;5.60;99.90;;;;;;7374480;19;20018;-69
2023/03/04 04:10:10;;;;;;;11.50;2.42;;;5.60;99.90;;;;;;7375578;19;20014;-71
2023/03/04 04:12:38;;;;;;;11.57;2.88;;;5.60;99.90;;;;;;7374519;19;20023;-71
2023/03/04 04:15:05;;;;;;;16.25;2.97;;;5.60;99.90;;;;;;7381765;19;20101;-69
2023/03/04 04:17:32;;;;;;;10.77;2.67;;;5.60;99.90;;;;;;7383310;19;20031;-69
2023/03/04 04:20:11;;;;;;;15.13;2.92;;;5.60;99.90;;;;;;7383567;19;20026;-69
2023/03/04 04:22:37;;;;;;;14.60;2.80;;;5.60;99.90;;;;;;7379551;19;20497;-71
2023/03/04 04:25:04;;;;;;;9.93;2.03;;;5.60;99.90;;;;;;7382891;19;20018;-72
2023/03/04 04:27:44;;;;;;;17.33;3.05;;;5.60;99.90;;;;;;7381656;19;20367;-72
2023/03/04 04:30:11;;;;;;;13.48;2.25;;;5.60;99.90;;;;;;7381946;19;20086;-71
2023/03/04 04:32:37;;;;;;;16.35;2.78;;;5.60;99.90;;;;;;7381669;19;20014;-72
2023/03/04 04:35:04;;;;;;;15.02;2.50;;;5.60;99.90;;;;;;7381781;19;20026;-72
2023/03/04 04:37:31;;;;;;;13.80;2.92;;;5.60;99.90;;;;;;7383444;19;20022;-72
2023/03/04 04:39:57;;;;;;;10.82;2.17;;;5.50;99.90;;;;;;7380393;19;20023;-72
2023/03/04 04:42:23;;;;;;;12.10;2.88;;;5.60;99.90;;;;;;7380416;19;20831;-69
2023/03/04 04:44:51;;;;;;;11.85;2.83;;;5.50;99.90;;;;;;7382867;19;20058;-69
2023/03/04 04:47:17;;;;;;;10.82;2.90;;;5.60;99.90;;;;;;7381923;19;20429;-69
2023/03/04 04:49:44;;;;;;;13.20;2.67;;;5.50;99.90;;;;;;7383390;19;20082;-69
2023/03/04 04:52:10;;;;;;;14.05;2.10;;;5.60;99.90;;;;;;7381808;19;20026;-69
2023/03/04 04:54:36;;;;;;;12.93;2.58;;;5.60;99.90;;;;;;7381177;19;20832;-69
2023/03/04 04:57:03;;;;;;;16.30;2.72;;;5.50;99.90;;;;;;7381098;19;20031;-69
2023/03/04 04:59:29;;;;;;;11.02;2.83;;;5.50;99.90;;;;;;7381678;19;20500;-69
2023/03/04 05:01:55;;;;;;;13.38;1.92;;;5.50;99.90;;;;;;7379296;19;20486;-72
2023/03/04 05:04:22;;;;;;;10.27;2.00;;;5.50;99.90;;;;;;7380791;19;20053;-72
2023/03/04 05:06:48;;;;;;;14.48;2.50;;;5.50;99.90;;;;;;7379003;19;20019;-69
2023/03/04 05:09:15;;;;;;;11.77;2.33;;;5.50;99.90;;;;;;7381082;19;20482;-69
2023/03/04 05:11:42;;;;;;;11.88;2.67;;;5.50;99.90;;;;;;7381682;19;20477;-69
2023/03/04 05:14:08;;;;;;;17.88;2.30;;;5.50;99.90;;;;;;7382596;19;20081;-69
2023/03/04 05:16:34;;;;;;;12.30;2.63;;;5.50;99.90;;;;;;7383047;19;20027;-69
2023/03/04 05:19:00;;;;;;;14.20;2.80;;;5.50;99.90;;;;;;7382013;19;20019;-69
2023/03/04 05:21:26;;;;;;;10.52;2.85;;;5.40;99.90;;;;;;7380973;19;20022;-70
2023/03/04 05:23:53;;;;;;;12.15;3.00;;;5.50;99.90;;;;;;7380892;19;20621;-69
2023/03/04 05:26:19;;;;;;;11.82;2.88;;;5.50;99.90;;;;;;7378938;19;20021;-69
2023/03/04 05:28:46;;;;;;;17.35;2.25;;;5.50;99.90;;;;;;7377499;19;20031;-71
2023/03/04 05:31:12;;;;;;;15.40;3.35;;;5.40;99.90;;;;;;7377519;19;20031;-72
2023/03/04 05:33:39;;;;;;;11.82;2.25;;;5.40;99.90;;;;;;7379128;19;20861;-72
2023/03/04 05:36:06;;;;;;;16.50;2.70;;;5.30;99.90;;;;;;7379057;19;20502;-72
2023/03/04 05:38:33;;;;;;;11.38;2.35;;;5.30;99.90;;;;;;7380364;19;20025;-72
2023/03/04 05:41:02;;;;;;;11.43;2.58;;;5.30;99.90;;;;;;7379433;19;20509;-69
2023/03/04 05:43:29;;;;;;;13.43;2.55;;;5.30;99.90;;;;;;7379128;19;20022;-69
2023/03/04 05:45:56;;;;;;;16.73;2.95;;;5.40;99.90;;;;;;7377351;19;20392;-69
2023/03/04 05:48:23;;;;;;;9.70;2.10;;;5.40;99.90;;;;;;7381792;19;20015;-69
2023/03/04 05:50:57;;;;;;;16.45;2.95;;;5.40;99.90;;;;;;7377505;19;20021;-69
2023/03/04 05:53:24;;;;;;;10.90;2.47;;;5.40;99.90;;;;;;7380373;19;20019;-69
2023/03/04 05:55:50;;;;;;;10.43;2.53;;;5.40;99.90;;;;;;7380557;19;20018;-69
2023/03/04 05:58:17;;;;;;;10.77;2.42;;;5.40;99.90;;;;;;7382701;19;20022;-71
2023/03/04 06:00:44;;;;;;;11.50;2.72;;;5.40;99.90;;;;;;7376167;19;20030;-72
2023/03/04 06:03:19;;;;;;;11.70;2.10;;;5.40;99.90;;;;;;7378487;19;20027;-69
2023/03/04 06:05:45;;;;;;;12.88;2.58;;;5.40;99.90;;;;;;7377190;19;20022;-69
2023/03/04 06:08:12;;;;;;;11.50;2.40;;;5.40;99.90;;;;;;7381357;19;20492;-69
2023/03/04 06:10:39;;;;;;;7.45;1.83;;;5.40;99.90;;;;;;7373792;19;20014;-69
2023/03/04 06:13:08;;;;;;;13.05;2.40;;;5.40;99.90;;;;;;7380501;19;20818;-69
2023/03/04 06:15:34;;;;;;;10.20;1.80;;;5.30;99.90;;;;;;7378153;19;20043;-69
2023/03/04 06:18:02;;;;;;;10.25;2.28;;;5.40;99.90;;;;;;7379076;19;20592;-69
2023/03/04 06:20:29;;;;;;;11.00;1.80;;;5.40;99.90;;;;;;7376026;19;20027;-71
2023/03/04 06:22:55;;;;;;;11.15;2.10;;;5.40;99.90;;;;;;7377673;19;20022;-71
2023/03/04 06:25:22;;;;;;;9.70;2.40;;;5.40;99.90;;;;;;7380172;19;20051;-71
2023/03/04 06:27:50;;;;;;;9.15;2.22;;;5.30;99.90;;;;;;7379974;19;20026;-71
2023/03/04 06:30:17;;;;;;;10.32;2.25;;;5.40;99.90;;;;;;7375313;19;20359;-69
2023/03/04 06:32:45;;;;;;;11.88;2.35;;;5.40;99.90;;;;;;7377298;19;20029;-72
2023/03/04 06:35:12;;;;;;;7.45;1.77;;;5.40;99.90;;;;;;7379592;19;20778;-71
2023/03/04 06:37:39;;;;;;;9.88;2.20;;;5.40;99.90;;;;;;7374297;19;20780;-71
2023/03/04 06:40:06;;;;;;;9.90;2.38;;;5.40;99.90;;;;;;7376295;19;20385;-71
2023/03/04 06:42:34;;;;;;;10.60;2.13;;;5.30;99.90;;;;;;7374364;19;20071;-71
2023/03/04 06:45:01;;;;;;;10.82;2.28;;;5.30;99.90;;;;;;7376630;19;20021;-70
2023/03/04 06:47:28;;;;;;;11.68;2.17;;;5.40;99.90;;;;;;7376645;19;20022;-70
2023/03/04 06:49:54;;;;;;;9.70;2.42;;;5.40;99.90;;;;;;7374913;19;20018;-50
2023/03/04 06:52:23;;;;;;;11.63;2.50;;;5.50;99.90;;;;;;7373193;19;20120;-71
2023/03/04 06:54:52;;;;;;;9.43;2.35;;;5.60;99.90;;;;;;7376408;19;20033;-70
2023/03/04 06:57:18;;;;;;;10.70;3.10;;;5.60;99.90;;;;;;7374079;19;20689;-70
2023/03/04 06:59:44;;;;;;;4.70;1.52;;;5.60;99.90;;;;;;7375731;19;20026;-70
2023/03/04 07:02:12;;;;;;;8.85;1.92;;;5.60;99.90;;;;;;7372579;19;20085;-71
2023/03/04 07:04:38;;;;;;;7.25;2.05;;;5.60;99.90;;;;;;7375847;19;20018;-71
2023/03/04 07:07:05;;;;;;;13.82;3.80;;;5.60;99.90;;;;;;7375906;19;20019;-71
2023/03/04 07:09:31;;;;;;;14.52;3.05;;;5.70;99.90;;;;;;7373884;19;20029;-70
2023/03/04 07:11:58;;;;;;;8.38;2.95;;;5.70;99.90;;;;;;7376389;19;20023;-71
2023/03/04 07:14:26;;;;;;;8.48;2.00;;;5.70;99.90;;;;;;7377020;19;20031;-70
2023/03/04 07:16:53;;;;;;;10.43;2.90;;;5.80;99.90;;;;;;7376002;19;20012;-71
2023/03/04 07:19:19;;;;;;;8.80;2.88;;;5.80;99.90;;;;;;7376402;19;20031;-70
2023/03/04 07:21:46;;;;;;;10.07;2.10;;;5.80;99.90;;;;;;7376278;19;20010;-70
2023/03/04 07:24:12;;;;;;;7.30;2.17;;;5.90;99.90;;;;;;7375482;19;20086;-71
2023/03/04 07:26:39;;;;;;;9.00;2.30;;;6.00;99.90;;;;;;7377593;19;20019;-70
2023/03/04 07:29:05;;;;;;;8.10;2.67;;;6.00;99.90;;;;;;7375219;19;20014;-70
2023/03/04 07:31:36;;;;;;;9.00;3.92;;;6.10;99.90;;;;;;7372862;19;20373;-70
2023/03/04 07:34:05;;;;;;;9.85;4.15;;;6.10;99.90;;;;;;7374620;19;20449;-70
2023/03/04 07:36:35;;;;;;;8.00;2.70;;;6.20;99.90;;;;;;7373972;19;21062;-70
2023/03/04 07:39:04;;;;;;;9.82;4.30;;;6.30;99.90;;;;;;7373202;19;20145;-70
2023/03/04 07:41:34;;;;;;;10.77;2.58;;;6.30;99.90;;;;;;7371205;19;20015;-70
2023/03/04 07:44:02;;;;;;;8.38;3.92;;;6.50;99.90;;;;;;7371762;19;20053;-70
2023/03/04 07:46:29;;;;;;;9.88;3.15;;;6.80;99.90;;;;;;7373577;19;20054;-70
2023/03/04 07:48:56;;;;;;;12.70;2.08;;;7.00;99.90;;;;;;7373271;19;20053;-71
2023/03/04 07:51:24;;;;;;;8.70;2.50;;;7.20;99.90;;;;;;7371781;19;20074;-71
2023/03/04 07:53:55;;;;;;;8.95;1.98;;;7.60;99.90;;;;;;7368150;19;20125;-71
2023/03/04 07:56:24;;;;;;;5.18;1.85;;;7.90;99.90;;;;;;7372177;19;20115;-71
2023/03/04 07:58:55;;;;;;;7.13;1.58;;;7.80;99.90;;;;;;7367974;19;20038;-70
2023/03/04 08:01:26;;;;;;;7.07;1.80;;;7.70;99.90;;;;;;7366576;19;20015;-70
2023/03/04 08:03:52;;;;;;;8.05;2.20;;;7.50;99.90;;;;;;7370673;19;20470;-71
2023/03/04 08:06:20;;;;;;;9.27;2.05;;;7.40;99.90;;;;;;7373091;19;20026;-70
2023/03/04 08:08:49;;;;;;;7.72;2.10;;;7.20;99.90;;;;;;7368981;19;20014;-70
2023/03/04 08:11:18;;;;;;;5.70;1.70;;;7.10;99.90;;;;;;7368710;19;20023;-70
2023/03/04 08:13:45;;;;;;;12.93;2.30;;;6.90;99.90;;;;;;7367853;19;20021;-70
2023/03/04 08:16:17;;;;;;;8.35;2.05;;;6.80;99.90;;;;;;7372697;19;20026;-71
2023/03/04 08:26:45;;;;;;;9.07;2.13;;;6.60;99.90;;;;;;7374039;19;20343;-70
2023/03/04 08:29:19;;;;;;;5.28;1.85;;;6.60;99.90;;;;;;7375045;19;20481;-69
2023/03/04 08:31:49;;;;;;;11.20;2.53;;;6.70;99.90;;;;;;7371202;19;20639;-70
2023/03/04 08:34:18;;;;;;;8.40;2.97;;;6.80;99.90;;;;;;7372063;19;20019;-70
2023/03/04 08:36:45;;;;;;;5.85;1.80;;;6.90;99.90;;;;;;7372194;19;20500;-70
2023/03/04 08:39:13;;;;;;;11.57;2.53;;;7.70;99.90;;;;;;7373031;19;20024;-72
2023/03/04 08:41:39;;;;;;;11.10;2.50;;;8.00;99.90;;;;;;7371118;19;20034;-70
2023/03/04 08:44:09;;;;;;;13.13;3.22;;;8.20;99.90;;;;;;7370728;19;21769;-70
2023/03/04 08:46:38;;;;;;;17.73;2.50;;;8.00;99.90;;;;;;7372301;19;20018;-70
2023/03/04 08:49:05;;;;;;;10.30;2.33;;;8.40;99.90;;;;;;7371440;19;20781;-70
2023/03/04 08:51:40;;;;;;;12.13;2.17;;;8.50;99.90;;;;;;7373402;19;20029;-70
2023/03/04 08:54:09;;;;;;;7.90;2.33;;;8.60;99.90;;;;;;7364977;19;20065;-69
2023/03/04 08:56:45;;;;;;;14.00;2.47;;;8.50;99.90;;;;;;7369890;19;20026;-69
2023/03/04 08:59:11;;;;;;;12.13;2.65;;;8.00;99.90;;;;;;7371364;19;20014;-71
2023/03/04 09:01:38;;;;;;;17.45;2.90;;;7.70;99.90;;;;;;7374381;19;20014;-69
2023/03/04 09:04:14;;;;;;;24.42;6.63;;;7.50;99.90;;;;;;7379556;19;20525;-69
2023/03/04 09:06:41;;;;;;;12.82;2.53;;;7.40;99.90;;;;;;7382878;19;20663;-69
2023/03/04 09:09:07;;;;;;;14.73;3.28;;;7.30;99.90;;;;;;7381601;19;20018;-68
2023/03/04 09:11:34;;;;;;;15.73;4.10;;;7.20;99.90;;;;;;7379559;19;20026;-69
2023/03/04 09:14:01;;;;;;;16.27;3.70;;;7.10;99.90;;;;;;7378414;19;20473;-70
2023/03/04 09:16:28;;;;;;;14.60;3.83;;;7.30;99.90;;;;;;7383296;19;20920;-69
2023/03/04 09:18:55;;;;;;;13.80;3.00;;;7.40;99.90;;;;;;7380984;19;20037;-69
2023/03/04 09:21:22;;;;;;;16.13;5.38;;;7.50;99.90;;;;;;7377775;19;20039;-69
2023/03/04 09:23:48;;;;;;;10.25;2.08;;;7.40;99.90;;;;;;7377054;19;20015;-69
2023/03/04 09:26:19;;;;;;;10.18;2.03;;;7.40;99.90;;;;;;7380565;19;20022;-69
2023/03/04 09:28:49;;;;;;;11.00;2.40;;;7.20;99.90;;;;;;7376215;19;20014;-69
2023/03/04 09:31:16;;;;;;;14.60;3.10;;;7.20;99.90;;;;;;7375956;19;20111;-71
2023/03/04 09:33:44;;;;;;;13.95;2.53;;;7.30;99.90;;;;;;7375370;19;20030;-69
2023/03/04 09:36:12;;;;;;;13.10;2.83;;;7.60;99.90;;;;;;7377338;19;20014;-70
2023/03/04 09:38:47;;;;;;;13.07;3.05;;;7.70;99.90;;;;;;7380212;19;20907;-69
2023/03/04 09:41:36;;;;;;;10.98;2.35;;;7.70;99.90;;;;;;7379651;19;20778;-69
2023/03/04 09:44:17;;;;;;;15.15;2.97;;;7.70;99.90;;;;;;7378018;19;20097;-69
2023/03/04 09:46:45;;;;;;;17.20;3.33;;;7.60;99.90;;;;;;7378019;19;20018;-70
2023/03/04 09:49:12;;;;;;;13.25;3.15;;;7.40;99.90;;;;;;7382709;19;20371;-70
2023/03/04 09:51:39;;;;;;;18.05;4.97;;;7.30;99.90;;;;;;7377611;19;20015;-70
2023/03/04 09:54:45;;;;;;;17.83;4.33;;;7.20;99.90;;;;;;7379874;19;20029;-70
2023/03/04 09:57:20;;;;;;;18.77;7.23;;;7.20;99.90;;;;;;7380176;19;20010;-71
2023/03/04 10:00:18;;;;;;;20.60;4.63;;;7.10;99.90;;;;;;7379489;19;20038;-70
2023/03/04 10:03:05;;;;;;;17.90;3.85;;;7.10;99.90;;;;;;7374873;19;20014;-70
2023/03/04 10:05:36;;;;;;;18.45;4.78;;;7.10;99.90;;;;;;7380762;19;20087;-71
2023/03/04 10:08:22;;;;;;;19.08;4.40;;;7.10;99.90;;;;;;7378543;19;20010;-71
2023/03/04 10:10:51;;;;;;;24.83;5.25;;;7.20;99.90;;;;;;7377637;19;20070;-71
2023/03/04 10:13:27;;;;;;;14.70;3.80;;;7.30;99.90;;;;;;7378080;19;20023;-71
2023/03/04 10:15:55;;;;;;;24.15;8.13;;;7.30;99.90;;;;;;7375795;19;20023;-71
2023/03/04 10:18:54;;;;;;;16.33;3.63;;;7.40;99.90;;;;;;7375425;19;20015;-71
2023/03/04 10:21:31;;;;;;;20.83;6.50;;;7.50;99.90;;;;;;7375887;19;20018;-71
2023/03/04 10:24:04;;;;;;;14.50;3.25;;;7.70;99.90;;;;;;7377433;19;20025;-70
2023/03/04 10:26:33;;;;;;;16.75;6.07;;;7.70;99.90;;;;;;7378544;19;20049;-70
2023/03/04 10:29:01;;;;;;;21.55;3.83;;;7.60;99.90;;;;;;7374539;19;20022;-70
2023/03/04 10:31:35;;;;;;;21.92;8.38;;;7.60;99.90;;;;;;7375074;19;20018;-70
2023/03/04 10:34:05;;;;;;;18.85;5.30;;;7.60;99.90;;;;;;7371353;19;20407;-71
2023/03/04 10:36:40;;;;;;;13.65;3.47;;;7.50;99.90;;;;;;7379225;19;20010;-70
2023/03/04 10:39:28;;;;;;;15.38;6.40;;;7.30;99.90;;;;;;7377325;19;20031;-70
2023/03/04 10:42:12;;;;;;;14.20;3.88;;;7.20;99.90;;;;;;7378412;19;20710;-71
2023/03/04 10:44:42;;;;;;;11.60;3.10;;;7.20;99.90;;;;;;7376426;19;20022;-71
2023/03/04 10:47:13;;;;;;;8.80;2.15;;;7.30;99.90;;;;;;7377096;19;20022;-70
2023/03/04 10:49:54;;;;;;;10.30;4.53;;;7.40;99.90;;;;;;7378599;19;20023;-70
2023/03/04 10:52:31;;;;;;;15.27;3.33;;;7.40;99.90;;;;;;7375302;19;20355;-70
2023/03/04 10:55:03;;;;;;;11.73;4.70;;;7.40;99.90;;;;;;7373658;19;20018;-70
2023/03/04 10:57:37;;;;;;;8.30;1.70;;;7.60;99.90;;;;;;7377598;19;20019;-70
2023/03/04 11:00:27;;;;;;;9.38;1.90;;;7.60;99.90;;;;;;7377255;19;20782;-70
2023/03/04 11:03:27;;;;;;;15.73;2.70;;;7.80;99.90;;;;;;7370248;19;20911;-71
2023/03/04 11:06:21;;;;;;;12.70;2.42;;;7.90;99.90;;;;;;7374696;19;20014;-70
2023/03/04 11:08:57;;;;;;;13.15;4.15;;;8.00;99.90;;;;;;7374760;19;20019;-71
2023/03/04 11:11:46;;;;;;;10.68;2.50;;;8.00;99.90;;;;;;7373702;19;20755;-71
2023/03/04 11:14:29;;;;;;;10.38;5.07;;;8.60;99.90;;;;;;7373406;19;20014;-70
2023/03/04 11:17:18;;;;;;;14.73;4.30;;;9.60;99.90;;;;;;7374795;19;20040;-71
2023/03/04 11:19:52;;;;;;;19.48;3.55;;;9.70;99.90;;;;;;7374110;19;20022;-70
2023/03/04 11:22:22;;;;;;;11.57;2.72;;;9.40;99.90;;;;;;7375403;19;20044;-70
2023/03/04 11:24:59;;;;;;;10.98;2.05;;;9.10;99.90;;;;;;7370491;19;20029;-71
2023/03/04 11:27:46;;;;;;;12.98;4.00;;;8.70;99.90;;;;;;7374892;19;20078;-71
2023/03/04 11:30:34;;;;;;;20.75;2.78;;;8.50;99.90;;;;;;7375677;19;20033;-70
2023/03/04 11:33:10;;;;;;;18.40;4.50;;;8.30;99.90;;;;;;7371424;19;20014;-70
2023/03/04 11:36:09;;;;;;;18.00;3.53;;;8.20;99.90;;;;;;7368733;19;20018;-70
2023/03/04 11:38:43;;;;;;;22.90;4.53;;;8.20;99.90;;;;;;7372380;19;20029;-70
2023/03/04 11:41:15;;;;;;;19.42;6.43;;;8.10;99.90;;;;;;7373713;19;20022;-70
2023/03/04 11:43:48;;;;;;;18.50;6.90;;;8.20;99.90;;;;;;7372056;19;20019;-70
2023/03/04 11:46:44;;;;;;;17.92;4.43;;;8.10;99.90;;;;;;7373947;19;20023;-70
2023/03/04 11:49:32;;;;;;;17.65;4.15;;;8.00;99.90;;;;;;7373774;19;20474;-69
2023/03/04 11:52:09;;;;;;;19.98;5.75;;;8.00;99.90;;;;;;7372988;19;20014;-69
2023/03/04 11:54:44;;;;;;;21.30;7.05;;;7.90;99.90;;;;;;7372857;19;20026;-69
2023/03/04 11:57:32;;;;;;;17.15;3.42;;;8.00;99.90;;;;;;7373759;19;20054;-69
2023/03/04 12:00:35;;;;;;;16.02;3.83;;;8.00;99.90;;;;;;7373375;19;20626;-70
2023/03/04 12:03:19;;;;;;;15.50;4.22;;;8.20;99.90;;;;;;7372848;19;20027;-69
2023/03/04 12:06:16;;;;;;;23.80;7.80;;;8.30;99.90;;;;;;7369765;19;20065;-69
2023/03/04 12:08:54;;;;;;;23.42;5.75;;;8.40;99.90;;;;;;7372422;19;20019;-69
2023/03/04 12:11:43;;;;;;;21.85;5.38;;;8.60;99.90;;;;;;7372687;19;20538;-69
2023/03/04 12:14:09;;;;;;;15.70;3.30;;;8.50;99.90;;;;;;7369384;19;20018;-71
2023/03/04 12:16:58;;;;;;;14.45;3.05;;;8.50;99.90;;;;;;7371394;19;20387;-70
2023/03/04 12:19:31;;;;;;;18.70;3.78;;;8.60;99.90;;;;;;7370035;19;20015;-71
2023/03/04 12:22:36;;;;;;;20.58;7.47;;;8.50;99.90;;;;;;7370997;19;20019;-70
2023/03/04 12:25:21;;;;;;;12.98;3.25;;;8.30;99.90;;;;;;7370435;19;20030;-69
2023/03/04 12:28:16;;;;;;;15.10;4.03;;;8.40;99.90;;;;;;7370743;19;20183;-69
2023/03/04 12:31:03;;;;;;;15.73;3.22;;;8.70;99.90;;;;;;7371069;19;20014;-69
2023/03/04 12:33:38;;;;;;;12.02;3.38;;;9.20;99.90;;;;;;7369065;19;20058;-69
2023/03/04 12:36:26;;;;;;;16.15;3.45;;;9.30;99.90;;;;;;7378048;19;20042;-69
2023/03/04 12:39:16;;;;;;;15.75;4.30;;;9.50;99.90;;;;;;7379666;19;20030;-69
2023/03/04 12:41:53;;;;;;;20.70;6.15;;;9.40;99.90;;;;;;7378196;19;20010;-69
2023/03/04 12:44:21;;;;;;;13.07;3.13;;;9.40;99.90;;;;;;7378583;19;20017;-69
2023/03/04 12:46:59;;;;;;;10.85;3.47;;;9.40;99.90;;;;;;7377574;19;20015;-69
2023/03/04 12:49:51;;;;;;;11.88;3.05;;;9.50;99.90;;;;;;7379695;19;20383;-69
2023/03/04 12:52:54;;;;;;;15.55;5.45;;;9.20;99.90;;;;;;7380945;19;20077;-69
2023/03/04 12:55:36;;;;;;;13.27;4.43;;;9.10;99.90;;;;;;7376888;19;20044;-69
2023/03/04 12:58:24;;;;;;;14.68;3.28;;;8.70;99.90;;;;;;7377593;19;20438;-69
2023/03/04 13:01:15;;;;;;;17.05;4.57;;;8.80;99.90;;;;;;7379078;19;20026;-70
2023/03/04 13:04:17;;;;;;;15.17;3.27;;;8.70;99.90;;;;;;7378177;19;20497;-69
2023/03/04 13:07:06;;;;;;;16.42;3.75;;;8.70;99.90;;;;;;7374897;19;20294;-69
2023/03/04 13:09:49;;;;;;;13.95;3.20;;;8.60;99.90;;;;;;7366301;19;20018;-70
2023/03/04 13:12:18;;;;;;;20.52;5.57;;;8.50;99.90;;;;;;7374852;19;21119;-69
2023/03/04 13:15:06;;;;;;;19.60;5.47;;;8.70;99.90;;;;;;7374710;19;20023;-70
2023/03/04 13:17:42;;;;;;;13.68;3.25;;;8.90;99.90;;;;;;7379387;19;20018;-69